createdAt,value
2023-02-19T00:02:30.599Z,97464.30
2023-02-19T00:05:34.771Z,97469.66
2023-02-19T00:08:38.138Z,97478.27
2023-02-19T00:11:40.146Z,97483.86
2023-02-19T00:14:41.646Z,97485.12
2023-02-19T00:17:43.308Z,97490.87
2023-02-19T00:20:45.279Z,97484.40
2023-02-19T00:24:47.846Z,97477.73
2023-02-19T00:29:02.689Z,97482.97
2023-02-19T00:32:47.154Z,97479.91
2023-02-19T00:36:32.734Z,97490.98
2023-02-19T00:39:35.840Z,97490.88
2023-02-19T00:42:53.640Z,97489.52
2023-02-19T00:46:03.078Z,97483.32
2023-02-19T00:49:07.743Z,97478.08
2023-02-19T00:52:18.352Z,97469.66
2023-02-19T01:02:53.173Z,97464.45
2023-02-19T01:05:56.616Z,97464.02
2023-02-19T01:08:59.745Z,97452.79
2023-02-19T01:12:02.939Z,97446.82
2023-02-19T01:15:06.489Z,97447.23
2023-02-19T01:18:10.127Z,97440.20
2023-02-19T01:21:18.305Z,97445.58
2023-02-19T01:24:22.576Z,97448.05
2023-02-19T01:27:26.742Z,97444.69
2023-02-19T01:30:30.836Z,97442.38
2023-02-19T01:33:36.605Z,97436.18
2023-02-19T01:36:40.358Z,97436.34
2023-02-19T01:39:43.663Z,97431.89
2023-02-19T01:43:04.454Z,97422.93
2023-02-19T01:46:08.344Z,97410.70
2023-02-19T01:49:26.181Z,97407.20
2023-02-19T01:52:33.724Z,97415.11
2023-02-19T01:56:01.203Z,97412.80
2023-02-19T01:59:05.732Z,97417.48
2023-02-19T02:02:13.813Z,97414.70
2023-02-19T02:06:22.249Z,97412.34
2023-02-19T02:10:08.523Z,97416.23
2023-02-19T02:14:06.965Z,97404.09
2023-02-19T02:17:55.456Z,97401.88
2023-02-19T02:21:57.305Z,97401.52
2023-02-19T02:26:09.313Z,97393.64
2023-02-19T02:30:11.785Z,97395.27
2023-02-19T02:33:54.046Z,97387.99
2023-02-19T02:37:22.747Z,97385.77
2023-02-19T02:40:53.168Z,97383.67
2023-02-19T02:44:23.339Z,97381.05
2023-02-19T02:48:05.629Z,97384.09
2023-02-19T02:51:52.119Z,97367.27
2023-02-19T02:55:11.921Z,97358.02
2023-02-19T02:58:34.680Z,97352.80
2023-02-19T03:02:33.354Z,97336.50
2023-02-19T03:06:00.363Z,97331.17
2023-02-19T03:09:49.927Z,97327.42
2023-02-19T03:13:39.605Z,97331.09
2023-02-19T03:18:03.343Z,97322.31
2023-02-19T03:22:14.846Z,97320.84
2023-02-19T03:25:58.975Z,97313.27
2023-02-19T03:29:31.218Z,97306.67
2023-02-19T03:32:57.681Z,97300.70
2023-02-19T03:36:07.912Z,97308.75
2023-02-19T03:39:21.767Z,97322.27
2023-02-19T03:42:41.890Z,97325.83
2023-02-19T03:46:32.537Z,97316.79
2023-02-19T03:50:34.813Z,97306.02
2023-02-19T03:54:42.157Z,97300.96
2023-02-19T03:57:59.572Z,97299.72
2023-02-19T04:01:29.106Z,97296.46
2023-02-19T04:05:20.471Z,97289.19
2023-02-19T04:08:35.608Z,97282.12
2023-02-19T04:12:05.341Z,97277.09
2023-02-19T04:15:25.795Z,97272.02
2023-02-19T04:19:02.912Z,97265.41
2023-02-19T04:22:26.605Z,97267.23
2023-02-19T04:25:55.525Z,97254.67
2023-02-19T04:29:14.549Z,97253.80
2023-02-19T04:32:39.323Z,97259.52
2023-02-19T04:36:02.559Z,97263.09
2023-02-19T04:39:27.410Z,97256.95
2023-02-19T04:42:51.738Z,97256.56
2023-02-19T04:46:08.326Z,97252.28
2023-02-19T04:49:31.654Z,97251.77
2023-02-19T04:53:13.529Z,97252.09
2023-02-19T04:56:33.214Z,97244.74
2023-02-19T04:59:56.184Z,97232.23
2023-02-19T05:03:21.564Z,97232.97
2023-02-19T05:06:42.895Z,97234.06
2023-02-19T05:10:01.127Z,97229.74
2023-02-19T05:13:21.278Z,97227.95
2023-02-19T05:16:43.763Z,97221.84
2023-02-19T05:20:10.075Z,97216.13
2023-02-19T05:23:31.137Z,97204.30
2023-02-19T05:26:51.279Z,97210.40
2023-02-19T05:30:14.271Z,97216.54
2023-02-19T05:33:30.592Z,97212.25
2023-02-19T05:36:50.258Z,97203.90
2023-02-19T05:40:10.830Z,97203.05
2023-02-19T05:43:36.969Z,97214.23
2023-02-19T05:46:50.462Z,97208.30
2023-02-19T05:50:03.328Z,97209.86
2023-02-19T05:53:40.224Z,97209.79
2023-02-19T05:56:51.239Z,97215.14
2023-02-19T06:00:33.295Z,97213.48
2023-02-19T06:03:46.232Z,97218.07
2023-02-19T06:07:04.782Z,97217.93
2023-02-19T06:10:18.313Z,97220.90
2023-02-19T06:13:42.407Z,97227.33
2023-02-19T06:17:01.119Z,97243.40
2023-02-19T06:24:08.792Z,97232.50
2023-02-19T06:27:31.791Z,97240.02
2023-02-19T06:30:55.270Z,97238.33
2023-02-19T06:34:10.079Z,97238.77
2023-02-19T06:37:29.885Z,97240.95
2023-02-19T06:40:50.689Z,97235.30
2023-02-19T06:44:04.985Z,97236.64
2023-02-19T06:47:31.899Z,97232.65
2023-02-19T06:50:44.871Z,97222.42
2023-02-19T06:53:58.413Z,97222.56
2023-02-19T06:57:19.567Z,97219.55
2023-02-19T07:00:43.612Z,97222.77
2023-02-19T07:04:01.852Z,97214.08
2023-02-19T07:07:11.447Z,97215.66
2023-02-19T07:10:33.632Z,97209.85
2023-02-19T07:13:47.373Z,97206.70
2023-02-19T07:17:16.683Z,97202.05
2023-02-19T07:20:24.900Z,97204.52
2023-02-19T07:23:43.407Z,97202.48
2023-02-19T07:27:14.136Z,97198.77
2023-02-19T07:30:21.895Z,97198.57
2023-02-19T07:33:39.277Z,97195.35
2023-02-19T07:37:04.690Z,97190.89
2023-02-19T07:40:18.905Z,97188.75
2023-02-19T07:43:30.630Z,97185.69
2023-02-19T07:46:38.996Z,97184.17
2023-02-19T07:50:11.846Z,97180.05
2023-02-19T07:53:36.466Z,97174.66
2023-02-19T07:57:02.948Z,97172.09
2023-02-19T08:00:16.891Z,97172.28
2023-02-19T08:03:24.164Z,97169.92
2023-02-19T08:06:54.211Z,97164.65
2023-02-19T08:10:24.632Z,97163.92
2023-02-19T08:13:53.296Z,97162.67
2023-02-19T08:17:09.022Z,97156.21
2023-02-19T08:20:30.180Z,97156.81
2023-02-19T08:23:41.110Z,97154.77
2023-02-19T08:26:48.165Z,97154.55
2023-02-19T08:30:09.091Z,97156.04
2023-02-19T08:33:34.624Z,97154.95
2023-02-19T08:36:42.230Z,97153.61
2023-02-19T08:40:27.501Z,97148.02
2023-02-19T08:43:36.762Z,97146.96
2023-02-19T08:46:40.192Z,97142.94
2023-02-19T08:49:59.074Z,97135.35
2023-02-19T08:53:21.255Z,97124.23
2023-02-19T08:56:36.314Z,97116.62
2023-02-19T08:59:46.930Z,97119.23
2023-02-19T09:03:05.235Z,97123.59
2023-02-19T09:06:16.895Z,97118.17
2023-02-19T09:09:24.653Z,97125.52
2023-02-19T09:12:35.145Z,97123.52
2023-02-19T09:15:46.939Z,97122.61
2023-02-19T09:18:55.539Z,97125.36
2023-02-19T09:22:18.985Z,97125.19
2023-02-19T09:25:38.125Z,97130.88
2023-02-19T09:28:59.075Z,97129.10
2023-02-19T09:32:11.033Z,97128.04
2023-02-19T09:35:33.949Z,97125.08
2023-02-19T09:38:53.495Z,97133.51
2023-02-19T09:42:22.963Z,97133.13
2023-02-19T09:45:44.099Z,97132.95
2023-02-19T09:48:52.837Z,97133.95
2023-02-19T09:52:12.271Z,97134.68
2023-02-19T09:55:56.631Z,97144.17
2023-02-19T09:59:20.309Z,97150.48
2023-02-19T10:02:25.928Z,97159.91
2023-02-19T10:05:34.038Z,97171.64
2023-02-19T10:08:43.693Z,97183.64
2023-02-19T10:11:54.398Z,97190.15
2023-02-19T10:15:25.547Z,97195.27
2023-02-19T10:18:42.484Z,97211.33
2023-02-19T10:21:50.065Z,97222.13
2023-02-19T10:24:58.221Z,97227.69
2023-02-19T10:28:20.461Z,97229.55
2023-02-19T10:31:31.484Z,97239.13
2023-02-19T10:34:46.187Z,97242.04
2023-02-19T10:38:01.730Z,97245.89
2023-02-19T10:41:27.997Z,97259.94
2023-02-19T10:44:43.213Z,97273.94
2023-02-19T10:48:21.273Z,97276.02
2023-02-19T10:52:01.718Z,97279.34
2023-02-19T10:55:43.550Z,97279.04
2023-02-19T10:58:51.595Z,97289.34
2023-02-19T11:02:04.040Z,97292.92
2023-02-19T11:05:21.969Z,97291.59
2023-02-19T11:08:47.161Z,97291.60
2023-02-19T11:11:58.750Z,97296.52
2023-02-19T11:15:27.733Z,97302.09
2023-02-19T11:18:38.596Z,97306.09
2023-02-19T11:21:59.182Z,97307.45
2023-02-19T11:25:14.631Z,97314.15
2023-02-19T11:29:18.412Z,97317.15
2023-02-19T11:32:41.720Z,97325.56
2023-02-19T11:36:30.493Z,97333.85
2023-02-19T11:39:46.933Z,97341.23
2023-02-19T11:42:58.434Z,97350.77
2023-02-19T11:46:56.521Z,97353.39
2023-02-19T11:50:28.513Z,97362.11
2023-02-19T11:53:48.092Z,97366.47
2023-02-19T11:57:17.306Z,97365.05
2023-02-19T12:00:45.166Z,97373.27
2023-02-19T12:04:42.249Z,97378.28
2023-02-19T12:08:18.622Z,97378.50
2023-02-19T12:11:53.776Z,97378.04
2023-02-19T12:15:30.997Z,97379.19
2023-02-19T12:19:30.034Z,97387.52
2023-02-19T12:22:51.210Z,97392.53
2023-02-19T12:26:29.934Z,97398.10
2023-02-19T12:30:19.883Z,97398.23
2023-02-19T12:34:07.100Z,97406.79
2023-02-19T12:37:32.550Z,97412.48
2023-02-19T12:41:13.251Z,97413.65
2023-02-19T12:44:45.691Z,97406.27
2023-02-19T12:48:43.983Z,97414.30
2023-02-19T12:52:30.201Z,97414.73
2023-02-19T12:55:54.004Z,97427.98
2023-02-19T12:59:49.468Z,97433.92
2023-02-19T13:03:37.354Z,97454.16
2023-02-19T13:07:17.545Z,97453.66
2023-02-19T13:11:12.849Z,97461.06
2023-02-19T13:15:02.306Z,97475.13
2023-02-19T13:18:50.438Z,97479.71
2023-02-19T13:23:00.806Z,97487.25
2023-02-19T13:27:17.878Z,97496.70
2023-02-19T13:30:51.532Z,97503.21
2023-02-19T13:34:37.742Z,97514.48
2023-02-19T13:38:28.451Z,97518.80
2023-02-19T13:42:17.822Z,97523.31
2023-02-19T13:45:55.710Z,97535.83
2023-02-19T13:49:56.326Z,97545.80
2023-02-19T13:53:42.063Z,97551.81
2023-02-19T13:57:46.902Z,97554.23
2023-02-19T14:01:01.184Z,97555.04
2023-02-19T14:05:01.824Z,97557.70
2023-02-19T14:08:52.314Z,97561.90
2023-02-19T14:13:02.042Z,97569.30
2023-02-19T14:16:51.716Z,97576.31
2023-02-19T14:20:39.070Z,97581.56
2023-02-19T14:24:05.183Z,97596.42
2023-02-19T14:27:28.547Z,97609.53
2023-02-19T14:32:03.846Z,97621.70
2023-02-19T14:35:35.341Z,97629.94
2023-02-19T14:39:19.314Z,97642.38
2023-02-19T14:42:42.674Z,97657.94
2023-02-19T14:46:19.209Z,97659.13
2023-02-19T14:49:56.952Z,97666.75
2023-02-19T14:53:10.398Z,97674.91
2023-02-19T14:56:41.512Z,97671.50
2023-02-19T15:00:20.052Z,97676.86
2023-02-19T15:03:42.150Z,97676.77
2023-02-19T15:07:05.230Z,97685.14
2023-02-19T15:10:18.951Z,97691.20
2023-02-19T15:13:45.928Z,97689.91
2023-02-19T15:17:13.493Z,97697.34
2023-02-19T15:20:26.762Z,97699.33
2023-02-19T15:23:39.283Z,97696.24
2023-02-19T15:27:04.169Z,97703.02
2023-02-19T15:30:57.516Z,97706.88
2023-02-19T15:34:24.583Z,97713.06
2023-02-19T15:37:42.096Z,97715.45
2023-02-19T15:41:05.155Z,97718.29
2023-02-19T15:44:32.119Z,97726.92
2023-02-19T15:48:01.149Z,97733.30
2023-02-19T15:51:28.324Z,97739.64
2023-02-19T15:55:07.517Z,97744.88
2023-02-19T15:58:40.820Z,97751.77
2023-02-19T16:02:02.143Z,97762.60
2023-02-19T16:05:39.382Z,97767.24
2023-02-19T16:09:22.461Z,97776.98
2023-02-19T16:13:02.621Z,97783.70
2023-02-19T16:16:48.545Z,97786.05
2023-02-19T16:20:18.176Z,97800.55
2023-02-19T16:23:28.828Z,97806.28
2023-02-19T16:27:05.382Z,97813.48
2023-02-19T16:30:25.885Z,97822.63
2023-02-19T16:34:16.180Z,97825.38
2023-02-19T16:37:59.720Z,97839.40
2023-02-19T16:41:20.980Z,97853.25
2023-02-19T16:44:47.484Z,97870.77
2023-02-19T16:48:26.258Z,97876.29
2023-02-19T16:52:04.254Z,97888.46
2023-02-19T16:55:35.121Z,97895.39
2023-02-19T16:58:55.253Z,97904.18
2023-02-19T17:02:39.402Z,97916.64
2023-02-19T17:05:46.558Z,97925.90
2023-02-19T17:09:08.599Z,97928.36
2023-02-19T17:12:21.834Z,97939.76
2023-02-19T17:15:46.818Z,97948.01
2023-02-19T17:19:13.897Z,97949.42
2023-02-19T17:22:37.907Z,97964.42
2023-02-19T17:25:56.512Z,97965.47
2023-02-19T17:29:18.201Z,97977.11
2023-02-19T17:32:38.440Z,97985.18
2023-02-19T17:35:57.005Z,97984.77
2023-02-19T17:39:04.380Z,97982.73
2023-02-19T17:42:26.830Z,97982.97
2023-02-19T17:46:06.497Z,97988.71
2023-02-19T17:49:50.271Z,97999.44
2023-02-19T17:53:11.214Z,98008.91
2023-02-19T17:56:47.153Z,98020.73
2023-02-19T18:00:19.727Z,98020.67
2023-02-19T18:03:45.401Z,98027.66
2023-02-19T18:07:04.697Z,98025.06
2023-02-19T18:10:31.954Z,98027.88
2023-02-19T18:13:58.396Z,98038.52
2023-02-19T18:17:19.111Z,98038.87
2023-02-19T18:20:57.446Z,98046.13
2023-02-19T18:24:29.087Z,98049.65
2023-02-19T18:27:52.845Z,98053.06
2023-02-19T18:31:12.022Z,98054.77
2023-02-19T18:34:22.755Z,98063.09
2023-02-19T18:37:49.988Z,98066.46
2023-02-19T18:41:20.199Z,98072.09
2023-02-19T18:44:53.599Z,98067.63
2023-02-19T18:48:18.499Z,98073.29
2023-02-19T18:51:44.173Z,98072.05
2023-02-19T18:55:07.696Z,98079.81
2023-02-19T18:58:33.225Z,98077.63
2023-02-19T19:01:55.371Z,98078.10
2023-02-19T19:05:31.188Z,98075.44
2023-02-19T19:08:51.355Z,98081.17
2023-02-19T19:12:10.062Z,98079.38
2023-02-19T19:15:29.198Z,98094.84
2023-02-19T19:18:49.844Z,98101.00
2023-02-19T19:22:22.905Z,98109.26
2023-02-19T19:25:41.651Z,98112.23
2023-02-19T19:29:01.142Z,98117.54
2023-02-19T19:32:08.928Z,98126.92
2023-02-19T19:35:36.000Z,98126.55
2023-02-19T19:39:04.135Z,98123.91
2023-02-19T19:42:22.953Z,98131.41
2023-02-19T19:45:44.070Z,98140.02
2023-02-19T19:48:58.502Z,98137.98
2023-02-19T19:52:22.113Z,98141.20
2023-02-19T19:55:44.191Z,98145.92
2023-02-19T19:59:15.870Z,98152.81
2023-02-19T20:03:01.147Z,98151.92
2023-02-19T20:06:15.224Z,98151.77
2023-02-19T20:09:35.412Z,98151.23
2023-02-19T20:12:54.438Z,98150.97
2023-02-19T20:16:15.017Z,98150.88
2023-02-19T20:19:37.538Z,98146.52
2023-02-19T20:22:57.800Z,98145.65
2023-02-19T20:26:30.124Z,98148.69
2023-02-19T20:29:51.790Z,98147.45
2023-02-19T20:33:11.186Z,98152.48
2023-02-19T20:36:44.042Z,98148.13
2023-02-19T20:40:14.312Z,98155.20
2023-02-19T20:43:42.658Z,98163.80
2023-02-19T20:47:03.664Z,98168.75
2023-02-19T20:50:27.010Z,98180.15
2023-02-19T20:54:05.783Z,98182.58
2023-02-19T20:57:14.148Z,98185.35
2023-02-19T21:00:37.473Z,98182.80
2023-02-19T21:03:59.046Z,98186.09
2023-02-19T21:07:18.852Z,98186.14
2023-02-19T21:10:41.692Z,98188.66
2023-02-19T21:14:00.081Z,98193.41
2023-02-19T21:17:23.781Z,98199.32
2023-02-19T21:20:50.591Z,98201.91
2023-02-19T21:24:12.733Z,98199.79
2023-02-19T21:27:31.765Z,98206.48
2023-02-19T21:30:59.264Z,98208.02
2023-02-19T21:34:29.750Z,98216.13
2023-02-19T21:38:01.195Z,98220.16
2023-02-19T21:41:28.687Z,98226.86
2023-02-19T21:44:54.145Z,98228.05
2023-02-19T21:48:22.251Z,98224.24
2023-02-19T21:51:55.009Z,98230.31
2023-02-19T21:55:15.028Z,98235.54
2023-02-19T21:58:34.585Z,98234.23
2023-02-19T22:01:57.093Z,98234.52
2023-02-19T22:05:24.351Z,98236.59
2023-02-19T22:08:45.762Z,98239.16
2023-02-19T22:12:19.123Z,98238.34
2023-02-19T22:15:47.760Z,98239.70
2023-02-19T22:19:00.421Z,98239.14
2023-02-19T22:22:19.402Z,98242.77
2023-02-19T22:25:40.843Z,98246.70
2023-02-19T22:29:07.324Z,98255.83
2023-02-19T22:32:31.864Z,98256.69
2023-02-19T22:36:12.533Z,98259.45
2023-02-19T22:39:35.500Z,98262.52
2023-02-19T22:42:55.825Z,98267.61
2023-02-19T22:46:16.625Z,98271.38
2023-02-19T22:49:56.236Z,98281.86
2023-02-19T22:53:31.742Z,98289.21
2023-02-19T22:56:57.046Z,98297.02
2023-02-19T23:00:21.583Z,98297.34
2023-02-19T23:04:12.032Z,98295.38
2023-02-19T23:07:39.512Z,98304.17
2023-02-19T23:11:04.333Z,98307.66
2023-02-19T23:14:29.355Z,98315.08
2023-02-19T23:17:51.644Z,98311.70
2023-02-19T23:21:14.422Z,98312.73
2023-02-19T23:24:41.874Z,98317.48
2023-02-19T23:28:21.930Z,98318.67
2023-02-19T23:31:49.275Z,98317.90
2023-02-19T23:35:13.836Z,98315.66
2023-02-19T23:38:34.686Z,98313.46
2023-02-19T23:41:58.039Z,98323.12
2023-02-19T23:45:30.028Z,98324.41
2023-02-19T23:48:49.607Z,98324.41
2023-02-19T23:52:14.545Z,98324.82
2023-02-19T23:55:33.828Z,98326.09
2023-02-19T23:58:42.183Z,98321.39
